sensor_id;sensor_type;location;lat;lon;timestamp;pressure;altitude;pressure_sealevel;temperature;humidity
34506;BME280;20748;42.632;23.198;2024-03-08T00:00:17;91947.94;;;2.73;100.00
34506;BME280;20748;42.632;23.198;2024-03-08T00:02:52;91953.81;;;2.68;100.00
34506;BME280;20748;42.632;23.198;2024-03-08T00:05:26;91951.53;;;2.67;100.00
34506;BME280;20748;42.632;23.198;2024-03-08T00:08:00;91949.78;;;2.83;100.00
34506;BME280;20748;42.632;23.198;2024-03-08T00:10:34;91942.53;;;2.80;100.00
34506;BME280;20748;42.632;23.198;2024-03-08T00:13:09;91946.16;;;2.79;100.00
34506;BME280;20748;42.632;23.198;2024-03-08T00:15:42;91948.97;;;2.72;100.00
34506;BME280;20748;42.632;23.198;2024-03-08T00:18:16;91950.69;;;2.56;100.00
34506;BME280;20748;42.632;23.198;2024-03-08T00:20:50;91946.78;;;2.48;100.00
34506;BME280;20748;42.632;23.198;2024-03-08T00:23:24;91942.41;;;2.49;100.00
34506;BME280;20748;42.632;23.198;2024-03-08T00:25:58;91943.41;;;2.42;100.00
34506;BME280;20748;42.632;23.198;2024-03-08T00:28:33;91939.28;;;2.41;100.00
34506;BME280;20748;42.632;23.198;2024-03-08T00:31:07;91940.31;;;2.40;100.00
34506;BME280;20748;42.632;23.198;2024-03-08T00:33:41;91943.09;;;2.34;100.00
34506;BME280;20748;42.632;23.198;2024-03-08T00:36:15;91934.25;;;2.24;100.00
34506;BME280;20748;42.632;23.198;2024-03-08T00:38:48;91943.13;;;2.39;100.00
34506;BME280;20748;42.632;23.198;2024-03-08T00:41:22;91945.50;;;2.51;100.00
34506;BME280;20748;42.632;23.198;2024-03-08T00:43:57;91934.97;;;2.58;100.00
34506;BME280;20748;42.632;23.198;2024-03-08T00:46:31;91938.78;;;2.50;100.00
34506;BME280;20748;42.632;23.198;2024-03-08T00:49:06;91937.03;;;2.55;100.00
34506;BME280;20748;42.632;23.198;2024-03-08T00:51:41;91935.03;;;2.68;100.00
34506;BME280;20748;42.632;23.198;2024-03-08T00:54:17;91927.34;;;2.73;100.00
34506;BME280;20748;42.632;23.198;2024-03-08T00:56:51;91926.88;;;2.87;100.00
34506;BME280;20748;42.632;23.198;2024-03-08T00:59:45;91917.34;;;2.92;100.00
34506;BME280;20748;42.632;23.198;2024-03-08T01:02:28;91922.78;;;2.91;100.00
34506;BME280;20748;42.632;23.198;2024-03-08T01:05:40;91922.03;;;3.01;100.00
34506;BME280;20748;42.632;23.198;2024-03-08T01:08:30;91922.53;;;3.03;100.00
34506;BME280;20748;42.632;23.198;2024-03-08T01:11:06;91915.06;;;3.01;100.00
34506;BME280;20748;42.632;23.198;2024-03-08T01:14:01;91917.63;;;3.01;100.00
34506;BME280;20748;42.632;23.198;2024-03-08T01:16:52;91914.81;;;3.03;100.00
34506;BME280;20748;42.632;23.198;2024-03-08T01:19:27;91914.59;;;3.15;100.00
34506;BME280;20748;42.632;23.198;2024-03-08T01:22:01;91913.03;;;3.19;100.00
34506;BME280;20748;42.632;23.198;2024-03-08T01:24:35;91919.72;;;3.09;100.00
34506;BME280;20748;42.632;23.198;2024-03-08T01:27:09;91917.94;;;3.15;100.00
34506;BME280;20748;42.632;23.198;2024-03-08T01:29:44;91914.06;;;3.18;100.00
34506;BME280;20748;42.632;23.198;2024-03-08T01:32:19;91905.78;;;3.05;100.00
34506;BME280;20748;42.632;23.198;2024-03-08T01:34:55;91901.44;;;3.06;100.00
34506;BME280;20748;42.632;23.198;2024-03-08T01:37:28;91901.66;;;3.04;100.00
34506;BME280;20748;42.632;23.198;2024-03-08T01:40:03;91902.19;;;3.06;100.00
34506;BME280;20748;42.632;23.198;2024-03-08T01:42:37;91897.56;;;3.03;100.00
34506;BME280;20748;42.632;23.198;2024-03-08T01:45:10;91900.31;;;2.86;100.00
34506;BME280;20748;42.632;23.198;2024-03-08T01:47:47;91902.88;;;2.86;100.00
34506;BME280;20748;42.632;23.198;2024-03-08T01:50:21;91895.38;;;2.74;100.00
34506;BME280;20748;42.632;23.198;2024-03-08T01:52:54;91897.97;;;2.79;100.00
34506;BME280;20748;42.632;23.198;2024-03-08T01:55:30;91894.63;;;2.79;100.00
34506;BME280;20748;42.632;23.198;2024-03-08T01:58:05;91897.94;;;2.69;100.00
34506;BME280;20748;42.632;23.198;2024-03-08T02:00:40;91904.38;;;2.72;100.00
34506;BME280;20748;42.632;23.198;2024-03-08T02:03:15;91895.38;;;2.74;100.00
34506;BME280;20748;42.632;23.198;2024-03-08T02:05:49;91891.56;;;2.82;100.00
34506;BME280;20748;42.632;23.198;2024-03-08T02:08:23;91890.00;;;2.76;100.00
34506;BME280;20748;42.632;23.198;2024-03-08T02:10:58;91886.41;;;2.82;100.00
34506;BME280;20748;42.632;23.198;2024-03-08T02:13:32;91891.69;;;2.60;100.00
34506;BME280;20748;42.632;23.198;2024-03-08T02:16:06;91895.56;;;2.62;100.00
34506;BME280;20748;42.632;23.198;2024-03-08T02:18:42;91897.16;;;2.68;100.00
34506;BME280;20748;42.632;23.198;2024-03-08T02:21:18;91881.94;;;2.62;100.00
34506;BME280;20748;42.632;23.198;2024-03-08T02:23:51;91890.13;;;2.53;100.00
34506;BME280;20748;42.632;23.198;2024-03-08T02:26:25;91891.91;;;2.48;100.00
34506;BME280;20748;42.632;23.198;2024-03-08T02:28:59;91894.28;;;2.54;100.00
34506;BME280;20748;42.632;23.198;2024-03-08T02:31:33;91889.63;;;2.51;100.00
34506;BME280;20748;42.632;23.198;2024-03-08T02:34:06;91881.84;;;2.41;100.00
34506;BME280;20748;42.632;23.198;2024-03-08T02:36:41;91885.69;;;2.38;100.00
34506;BME280;20748;42.632;23.198;2024-03-08T02:39:15;91889.53;;;2.31;100.00
34506;BME280;20748;42.632;23.198;2024-03-08T02:41:49;91888.22;;;2.33;100.00
34506;BME280;20748;42.632;23.198;2024-03-08T02:44:22;91885.66;;;2.28;100.00
34506;BME280;20748;42.632;23.198;2024-03-08T02:46:56;91886.91;;;2.25;100.00
34506;BME280;20748;42.632;23.198;2024-03-08T02:49:30;91892.78;;;2.21;100.00
34506;BME280;20748;42.632;23.198;2024-03-08T02:52:05;91887.34;;;2.12;100.00
34506;BME280;20748;42.632;23.198;2024-03-08T02:54:39;91891.47;;;2.18;100.00
34506;BME280;20748;42.632;23.198;2024-03-08T02:57:13;91893.47;;;2.06;100.00
34506;BME280;20748;42.632;23.198;2024-03-08T02:59:47;91901.22;;;2.11;100.00
34506;BME280;20748;42.632;23.198;2024-03-08T03:02:20;91896.63;;;2.18;100.00
34506;BME280;20748;42.632;23.198;2024-03-08T03:04:55;91899.78;;;2.25;100.00
34506;BME280;20748;42.632;23.198;2024-03-08T03:07:30;91901.81;;;2.23;100.00
34506;BME280;20748;42.632;23.198;2024-03-08T03:10:06;91899.53;;;2.27;100.00
34506;BME280;20748;42.632;23.198;2024-03-08T03:12:40;91901.84;;;2.28;100.00
34506;BME280;20748;42.632;23.198;2024-03-08T03:15:14;91902.81;;;2.17;100.00
34506;BME280;20748;42.632;23.198;2024-03-08T03:17:50;91911.03;;;2.14;100.00
34506;BME280;20748;42.632;23.198;2024-03-08T03:20:24;91907.09;;;2.01;100.00
34506;BME280;20748;42.632;23.198;2024-03-08T03:23:00;91908.16;;;2.05;100.00
34506;BME280;20748;42.632;23.198;2024-03-08T03:25:36;91906.94;;;2.13;100.00
34506;BME280;20748;42.632;23.198;2024-03-08T03:28:13;91910.25;;;2.13;100.00
34506;BME280;20748;42.632;23.198;2024-03-08T03:30:50;91914.13;;;2.16;100.00
34506;BME280;20748;42.632;23.198;2024-03-08T03:33:25;91917.53;;;2.22;100.00
34506;BME280;20748;42.632;23.198;2024-03-08T03:35:59;91917.78;;;2.20;100.00
34506;BME280;20748;42.632;23.198;2024-03-08T03:38:34;91926.53;;;2.19;100.00
34506;BME280;20748;42.632;23.198;2024-03-08T03:41:08;91924.63;;;2.09;100.00
34506;BME280;20748;42.632;23.198;2024-03-08T03:43:43;91928.06;;;2.20;100.00
34506;BME280;20748;42.632;23.198;2024-03-08T03:46:16;91925.66;;;2.08;100.00
34506;BME280;20748;42.632;23.198;2024-03-08T03:48:50;91931.63;;;2.14;100.00
34506;BME280;20748;42.632;23.198;2024-03-08T03:51:24;91932.34;;;2.09;100.00
34506;BME280;20748;42.632;23.198;2024-03-08T03:53:59;91940.91;;;2.15;100.00
34506;BME280;20748;42.632;23.198;2024-03-08T03:56:33;91936.75;;;2.09;100.00
34506;BME280;20748;42.632;23.198;2024-03-08T03:59:06;91940.66;;;2.17;100.00
34506;BME280;20748;42.632;23.198;2024-03-08T04:01:42;91941.69;;;2.21;100.00
34506;BME280;20748;42.632;23.198;2024-03-08T04:04:15;91941.50;;;2.27;100.00
34506;BME280;20748;42.632;23.198;2024-03-08T04:06:49;91954.16;;;2.34;100.00
34506;BME280;20748;42.632;23.198;2024-03-08T04:09:24;91954.38;;;2.27;100.00
34506;BME280;20748;42.632;23.198;2024-03-08T04:11:58;91965.50;;;2.38;100.00
34506;BME280;20748;42.632;23.198;2024-03-08T04:14:33;91958.69;;;2.17;100.00
34506;BME280;20748;42.632;23.198;2024-03-08T04:17:07;91953.03;;;2.20;100.00
34506;BME280;20748;42.632;23.198;2024-03-08T04:19:42;91962.00;;;2.17;100.00
34506;BME280;20748;42.632;23.198;2024-03-08T04:22:16;91950.97;;;2.17;100.00
34506;BME280;20748;42.632;23.198;2024-03-08T04:24:51;91956.16;;;2.27;100.00
34506;BME280;20748;42.632;23.198;2024-03-08T04:27:24;91959.28;;;2.29;100.00
34506;BME280;20748;42.632;23.198;2024-03-08T04:29:58;91970.06;;;2.26;100.00
34506;BME280;20748;42.632;23.198;2024-03-08T04:32:32;91975.41;;;2.14;100.00
34506;BME280;20748;42.632;23.198;2024-03-08T04:35:07;91974.38;;;2.15;100.00
34506;BME280;20748;42.632;23.198;2024-03-08T04:37:40;91984.44;;;2.17;100.00
34506;BME280;20748;42.632;23.198;2024-03-08T04:40:16;91978.44;;;2.11;100.00
34506;BME280;20748;42.632;23.198;2024-03-08T04:42:51;91984.66;;;2.15;100.00
34506;BME280;20748;42.632;23.198;2024-03-08T04:45:25;91984.38;;;2.11;100.00
34506;BME280;20748;42.632;23.198;2024-03-08T04:47:59;91989.06;;;2.20;100.00
34506;BME280;20748;42.632;23.198;2024-03-08T04:50:33;91981.75;;;2.06;100.00
34506;BME280;20748;42.632;23.198;2024-03-08T04:53:07;91986.38;;;2.04;100.00
34506;BME280;20748;42.632;23.198;2024-03-08T04:55:42;91976.81;;;1.99;100.00
34506;BME280;20748;42.632;23.198;2024-03-08T04:58:16;91981.44;;;1.97;100.00
34506;BME280;20748;42.632;23.198;2024-03-08T05:00:50;91978.03;;;1.92;100.00
34506;BME280;20748;42.632;23.198;2024-03-08T05:03:24;91978.81;;;1.92;100.00
34506;BME280;20748;42.632;23.198;2024-03-08T05:05:59;91987.22;;;1.82;100.00
34506;BME280;20748;42.632;23.198;2024-03-08T05:08:33;91982.78;;;1.72;100.00
34506;BME280;20748;42.632;23.198;2024-03-08T05:11:08;91982.31;;;1.81;100.00
34506;BME280;20748;42.632;23.198;2024-03-08T05:13:42;91989.69;;;1.72;100.00
34506;BME280;20748;42.632;23.198;2024-03-08T05:16:15;91987.66;;;1.74;100.00
34506;BME280;20748;42.632;23.198;2024-03-08T05:18:49;91988.59;;;1.63;100.00
34506;BME280;20748;42.632;23.198;2024-03-08T05:21:23;91994.28;;;1.65;100.00
34506;BME280;20748;42.632;23.198;2024-03-08T05:23:57;91997.13;;;1.68;100.00
34506;BME280;20748;42.632;23.198;2024-03-08T05:26:32;92000.16;;;1.60;100.00
34506;BME280;20748;42.632;23.198;2024-03-08T05:29:05;92010.13;;;1.56;100.00
34506;BME280;20748;42.632;23.198;2024-03-08T05:31:45;92019.13;;;1.54;100.00
34506;BME280;20748;42.632;23.198;2024-03-08T05:34:20;92019.75;;;1.44;100.00
34506;BME280;20748;42.632;23.198;2024-03-08T05:36:54;92021.00;;;1.41;100.00
34506;BME280;20748;42.632;23.198;2024-03-08T05:39:27;92023.59;;;1.41;100.00
34506;BME280;20748;42.632;23.198;2024-03-08T05:42:03;92032.38;;;1.45;100.00
34506;BME280;20748;42.632;23.198;2024-03-08T05:44:37;92035.97;;;1.44;100.00
34506;BME280;20748;42.632;23.198;2024-03-08T05:47:12;92035.69;;;1.41;100.00
34506;BME280;20748;42.632;23.198;2024-03-08T05:49:46;92036.94;;;1.38;100.00
34506;BME280;20748;42.632;23.198;2024-03-08T05:52:20;92041.00;;;1.34;100.00
34506;BME280;20748;42.632;23.198;2024-03-08T05:54:53;92044.00;;;1.26;100.00
34506;BME280;20748;42.632;23.198;2024-03-08T05:57:28;92037.34;;;1.30;100.00
34506;BME280;20748;42.632;23.198;2024-03-08T06:00:02;92051.09;;;1.41;100.00
34506;BME280;20748;42.632;23.198;2024-03-08T06:02:43;92058.59;;;1.42;100.00
34506;BME280;20748;42.632;23.198;2024-03-08T06:05:17;92062.47;;;1.45;100.00
34506;BME280;20748;42.632;23.198;2024-03-08T06:07:51;92056.19;;;1.36;100.00
34506;BME280;20748;42.632;23.198;2024-03-08T06:10:25;92060.47;;;1.30;100.00
34506;BME280;20748;42.632;23.198;2024-03-08T06:13:00;92057.38;;;1.28;100.00
34506;BME280;20748;42.632;23.198;2024-03-08T06:15:34;92055.31;;;1.25;100.00
34506;BME280;20748;42.632;23.198;2024-03-08T06:18:08;92058.94;;;1.29;100.00
34506;BME280;20748;42.632;23.198;2024-03-08T06:20:44;92065.88;;;1.28;100.00
34506;BME280;20748;42.632;23.198;2024-03-08T06:23:18;92075.13;;;1.29;100.00
34506;BME280;20748;42.632;23.198;2024-03-08T06:25:52;92070.94;;;1.23;100.00
34506;BME280;20748;42.632;23.198;2024-03-08T06:28:27;92074.13;;;1.30;100.00
34506;BME280;20748;42.632;23.198;2024-03-08T06:31:01;92071.03;;;1.28;100.00
34506;BME280;20748;42.632;23.198;2024-03-08T06:33:35;92071.72;;;1.24;100.00
34506;BME280;20748;42.632;23.198;2024-03-08T06:36:08;92072.72;;;1.23;100.00
34506;BME280;20748;42.632;23.198;2024-03-08T06:38:44;92070.00;;;1.29;100.00
34506;BME280;20748;42.632;23.198;2024-03-08T06:41:18;92073.59;;;1.28;100.00
34506;BME280;20748;42.632;23.198;2024-03-08T06:43:53;92071.63;;;1.36;100.00
34506;BME280;20748;42.632;23.198;2024-03-08T06:46:30;92079.50;;;1.29;100.00
34506;BME280;20748;42.632;23.198;2024-03-08T06:49:03;92079.56;;;1.34;100.00
34506;BME280;20748;42.632;23.198;2024-03-08T06:51:37;92083.16;;;1.33;100.00
34506;BME280;20748;42.632;23.198;2024-03-08T06:54:13;92086.03;;;1.37;100.00
34506;BME280;20748;42.632;23.198;2024-03-08T06:56:47;92085.78;;;1.38;100.00
34506;BME280;20748;42.632;23.198;2024-03-08T06:59:22;92088.44;;;1.43;100.00
34506;BME280;20748;42.632;23.198;2024-03-08T07:01:55;92086.81;;;1.37;100.00
34506;BME280;20748;42.632;23.198;2024-03-08T07:04:29;92092.41;;;1.34;100.00
34506;BME280;20748;42.632;23.198;2024-03-08T07:07:04;92090.78;;;1.28;100.00
34506;BME280;20748;42.632;23.198;2024-03-08T07:09:40;92089.09;;;1.33;100.00
34506;BME280;20748;42.632;23.198;2024-03-08T07:12:15;92088.34;;;1.38;100.00
34506;BME280;20748;42.632;23.198;2024-03-08T07:14:51;92087.88;;;1.41;100.00
34506;BME280;20748;42.632;23.198;2024-03-08T07:17:25;92093.06;;;1.46;100.00
34506;BME280;20748;42.632;23.198;2024-03-08T07:19:59;92091.22;;;1.42;100.00
34506;BME280;20748;42.632;23.198;2024-03-08T07:22:39;92099.53;;;1.49;100.00
34506;BME280;20748;42.632;23.198;2024-03-08T07:25:15;92091.28;;;1.47;100.00
34506;BME280;20748;42.632;23.198;2024-03-08T07:27:56;92092.59;;;1.50;100.00
34506;BME280;20748;42.632;23.198;2024-03-08T07:30:31;92087.22;;;1.51;100.00
34506;BME280;20748;42.632;23.198;2024-03-08T07:33:33;92092.84;;;1.48;100.00
34506;BME280;20748;42.632;23.198;2024-03-08T07:36:07;92092.31;;;1.46;100.00
34506;BME280;20748;42.632;23.198;2024-03-08T07:38:42;92090.97;;;1.66;100.00
34506;BME280;20748;42.632;23.198;2024-03-08T07:41:16;92095.34;;;1.65;100.00
34506;BME280;20748;42.632;23.198;2024-03-08T07:43:49;92101.41;;;1.76;100.00
34506;BME280;20748;42.632;23.198;2024-03-08T07:46:25;92099.13;;;1.80;100.00
34506;BME280;20748;42.632;23.198;2024-03-08T07:49:03;92097.63;;;1.84;100.00
34506;BME280;20748;42.632;23.198;2024-03-08T07:51:37;92096.91;;;1.88;100.00
34506;BME280;20748;42.632;23.198;2024-03-08T07:54:11;92100.22;;;1.89;100.00
34506;BME280;20748;42.632;23.198;2024-03-08T07:56:44;92107.72;;;1.91;100.00
34506;BME280;20748;42.632;23.198;2024-03-08T07:59:19;92101.50;;;1.86;100.00
34506;BME280;20748;42.632;23.198;2024-03-08T08:01:54;92103.34;;;1.91;100.00
34506;BME280;20748;42.632;23.198;2024-03-08T08:04:28;92109.03;;;1.93;100.00
34506;BME280;20748;42.632;23.198;2024-03-08T08:07:02;92105.69;;;1.93;100.00
34506;BME280;20748;42.632;23.198;2024-03-08T08:09:35;92104.47;;;2.00;100.00
34506;BME280;20748;42.632;23.198;2024-03-08T08:12:10;92106.56;;;2.04;100.00
34506;BME280;20748;42.632;23.198;2024-03-08T08:14:44;92111.41;;;2.00;100.00
34506;BME280;20748;42.632;23.198;2024-03-08T08:17:20;92114.88;;;2.11;100.00
34506;BME280;20748;42.632;23.198;2024-03-08T08:19:54;92106.41;;;2.15;100.00
34506;BME280;20748;42.632;23.198;2024-03-08T08:22:28;92108.13;;;2.32;100.00
34506;BME280;20748;42.632;23.198;2024-03-08T08:25:01;92101.97;;;2.38;100.00
34506;BME280;20748;42.632;23.198;2024-03-08T08:27:35;92106.81;;;2.57;100.00
34506;BME280;20748;42.632;23.198;2024-03-08T08:30:11;92106.63;;;2.69;100.00
34506;BME280;20748;42.632;23.198;2024-03-08T08:32:46;92104.97;;;2.90;100.00
34506;BME280;20748;42.632;23.198;2024-03-08T08:35:21;92104.53;;;3.04;100.00
34506;BME280;20748;42.632;23.198;2024-03-08T08:37:54;92098.44;;;3.20;100.00
34506;BME280;20748;42.632;23.198;2024-03-08T08:40:28;92101.88;;;3.36;100.00
34506;BME280;20748;42.632;23.198;2024-03-08T08:43:03;92096.00;;;3.46;100.00
34506;BME280;20748;42.632;23.198;2024-03-08T08:45:37;92099.63;;;3.51;100.00
34506;BME280;20748;42.632;23.198;2024-03-08T08:48:12;92096.78;;;3.47;100.00
34506;BME280;20748;42.632;23.198;2024-03-08T08:50:46;92093.50;;;3.67;100.00
34506;BME280;20748;42.632;23.198;2024-03-08T08:53:19;92096.38;;;3.76;100.00
34506;BME280;20748;42.632;23.198;2024-03-08T08:55:54;92092.03;;;3.82;100.00
34506;BME280;20748;42.632;23.198;2024-03-08T08:58:28;92097.13;;;3.71;100.00
34506;BME280;20748;42.632;23.198;2024-03-08T09:01:02;92095.56;;;3.65;100.00
34506;BME280;20748;42.632;23.198;2024-03-08T09:03:39;92091.16;;;3.66;100.00
34506;BME280;20748;42.632;23.198;2024-03-08T09:06:13;92095.56;;;3.65;100.00
34506;BME280;20748;42.632;23.198;2024-03-08T09:08:46;92088.69;;;3.86;100.00
34506;BME280;20748;42.632;23.198;2024-03-08T09:11:20;92089.72;;;3.85;100.00
34506;BME280;20748;42.632;23.198;2024-03-08T09:13:54;92089.50;;;4.13;100.00
34506;BME280;20748;42.632;23.198;2024-03-08T09:16:27;92082.28;;;4.20;100.00
34506;BME280;20748;42.632;23.198;2024-03-08T09:19:02;92090.81;;;4.31;100.00
34506;BME280;20748;42.632;23.198;2024-03-08T09:21:37;92098.34;;;4.48;100.00
34506;BME280;20748;42.632;23.198;2024-03-08T09:24:12;92102.22;;;4.77;100.00
34506;BME280;20748;42.632;23.198;2024-03-08T09:26:46;92105.59;;;4.88;100.00
34506;BME280;20748;42.632;23.198;2024-03-08T09:29:19;92104.28;;;4.90;100.00
34506;BME280;20748;42.632;23.198;2024-03-08T09:31:53;92105.56;;;4.93;100.00
34506;BME280;20748;42.632;23.198;2024-03-08T09:34:28;92103.00;;;4.93;100.00
34506;BME280;20748;42.632;23.198;2024-03-08T09:37:09;92102.22;;;4.77;100.00
34506;BME280;20748;42.632;23.198;2024-03-08T09:39:43;92106.63;;;4.92;100.00
34506;BME280;20748;42.632;23.198;2024-03-08T09:42:17;92105.06;;;5.06;100.00
34506;BME280;20748;42.632;23.198;2024-03-08T09:44:51;92101.94;;;4.99;100.00
34506;BME280;20748;42.632;23.198;2024-03-08T09:47:28;92101.66;;;5.27;97.70
34506;BME280;20748;42.632;23.198;2024-03-08T09:50:08;92103.38;;;5.57;97.89
34506;BME280;20748;42.632;23.198;2024-03-08T09:52:43;92104.91;;;5.63;93.71
34506;BME280;20748;42.632;23.198;2024-03-08T09:55:20;92109.50;;;5.87;96.43
34506;BME280;20748;42.632;23.198;2024-03-08T09:57:55;92109.44;;;5.98;94.02
34506;BME280;20748;42.632;23.198;2024-03-08T10:00:48;92112.28;;;6.01;91.81
34506;BME280;20748;42.632;23.198;2024-03-08T10:03:23;92114.63;;;6.08;88.20
34506;BME280;20748;42.632;23.198;2024-03-08T10:05:59;92118.25;;;6.07;89.25
34506;BME280;20748;42.632;23.198;2024-03-08T10:08:33;92108.84;;;6.22;89.87
34506;BME280;20748;42.632;23.198;2024-03-08T10:11:07;92107.78;;;6.23;88.64
34506;BME280;20748;42.632;23.198;2024-03-08T10:13:41;92111.03;;;6.44;89.07
34506;BME280;20748;42.632;23.198;2024-03-08T10:16:14;92119.72;;;6.69;88.74
34506;BME280;20748;42.632;23.198;2024-03-08T10:18:49;92113.94;;;6.77;87.65
34506;BME280;20748;42.632;23.198;2024-03-08T10:21:24;92112.19;;;6.67;85.78
34506;BME280;20748;42.632;23.198;2024-03-08T10:23:58;92114.44;;;6.79;85.66
34506;BME280;20748;42.632;23.198;2024-03-08T10:26:32;92110.44;;;6.92;85.52
34506;BME280;20748;42.632;23.198;2024-03-08T10:29:05;92114.31;;;6.95;84.06
34506;BME280;20748;42.632;23.198;2024-03-08T10:31:39;92119.56;;;7.19;82.48
34506;BME280;20748;42.632;23.198;2024-03-08T10:34:12;92119.09;;;7.12;79.91
34506;BME280;20748;42.632;23.198;2024-03-08T10:36:49;92106.41;;;7.10;80.43
34506;BME280;20748;42.632;23.198;2024-03-08T10:39:29;92097.94;;;7.29;81.23
34506;BME280;20748;42.632;23.198;2024-03-08T10:42:12;92101.03;;;7.31;80.19
34506;BME280;20748;42.632;23.198;2024-03-08T10:44:58;92099.16;;;7.61;79.42
34506;BME280;20748;42.632;23.198;2024-03-08T10:47:40;92092.47;;;8.04;77.26
34506;BME280;20748;42.632;23.198;2024-03-08T10:50:18;92090.56;;;8.29;76.56
34506;BME280;20748;42.632;23.198;2024-03-08T10:52:57;92087.06;;;8.19;73.51
34506;BME280;20748;42.632;23.198;2024-03-08T10:55:33;92089.97;;;7.93;75.31
34506;BME280;20748;42.632;23.198;2024-03-08T10:58:10;92086.72;;;8.26;76.40
34506;BME280;20748;42.632;23.198;2024-03-08T11:00:44;92088.25;;;8.27;74.62
34506;BME280;20748;42.632;23.198;2024-03-08T11:03:44;92082.97;;;8.71;73.20
34506;BME280;20748;42.632;23.198;2024-03-08T11:06:23;92074.56;;;8.60;72.76
34506;BME280;20748;42.632;23.198;2024-03-08T11:09:08;92069.84;;;8.62;72.79
34506;BME280;20748;42.632;23.198;2024-03-08T11:11:45;92074.47;;;8.84;71.53
34506;BME280;20748;42.632;23.198;2024-03-08T11:14:43;92072.81;;;9.22;72.70
34506;BME280;20748;42.632;23.198;2024-03-08T11:17:21;92066.31;;;9.05;71.12
34506;BME280;20748;42.632;23.198;2024-03-08T11:19:55;92056.97;;;9.04;70.91
34506;BME280;20748;42.632;23.198;2024-03-08T11:22:33;92057.00;;;9.32;70.86
34506;BME280;20748;42.632;23.198;2024-03-08T11:25:09;92050.44;;;9.63;67.92
34506;BME280;20748;42.632;23.198;2024-03-08T11:27:53;92059.78;;;9.92;67.33
34506;BME280;20748;42.632;23.198;2024-03-08T11:30:39;92058.22;;;10.05;63.42
34506;BME280;20748;42.632;23.198;2024-03-08T11:33:13;92060.66;;;10.01;64.73
34506;BME280;20748;42.632;23.198;2024-03-08T11:35:47;92050.94;;;9.79;65.21
34506;BME280;20748;42.632;23.198;2024-03-08T11:38:21;92041.78;;;9.53;64.86
34506;BME280;20748;42.632;23.198;2024-03-08T11:40:58;92052.47;;;9.52;65.22
34506;BME280;20748;42.632;23.198;2024-03-08T11:43:31;92055.97;;;9.61;64.91
34506;BME280;20748;42.632;23.198;2024-03-08T11:46:07;92054.09;;;9.90;65.46
34506;BME280;20748;42.632;23.198;2024-03-08T11:48:42;92045.63;;;10.21;63.93
34506;BME280;20748;42.632;23.198;2024-03-08T11:51:16;92055.28;;;10.34;61.34
34506;BME280;20748;42.632;23.198;2024-03-08T11:53:52;92041.16;;;10.50;62.75
34506;BME280;20748;42.632;23.198;2024-03-08T11:56:27;92045.19;;;10.56;60.67
34506;BME280;20748;42.632;23.198;2024-03-08T11:59:01;92045.94;;;10.56;60.47
34506;BME280;20748;42.632;23.198;2024-03-08T12:01:34;92036.69;;;10.36;60.92
34506;BME280;20748;42.632;23.198;2024-03-08T12:04:11;92040.09;;;10.37;61.35
34506;BME280;20748;42.632;23.198;2024-03-08T12:06:46;92043.38;;;10.65;59.56
34506;BME280;20748;42.632;23.198;2024-03-08T12:09:20;92039.97;;;10.56;58.32
34506;BME280;20748;42.632;23.198;2024-03-08T12:11:55;92036.63;;;10.64;61.71
34506;BME280;20748;42.632;23.198;2024-03-08T12:14:29;92036.56;;;10.55;57.22
34506;BME280;20748;42.632;23.198;2024-03-08T12:17:04;92035.53;;;10.05;60.97
34506;BME280;20748;42.632;23.198;2024-03-08T12:19:38;92035.06;;;9.89;61.77
34506;BME280;20748;42.632;23.198;2024-03-08T12:22:14;92030.75;;;9.85;62.28
34506;BME280;20748;42.632;23.198;2024-03-08T12:25:03;92037.84;;;10.07;64.39
34506;BME280;20748;42.632;23.198;2024-03-08T12:27:39;92037.66;;;10.40;61.79
34506;BME280;20748;42.632;23.198;2024-03-08T12:33:15;92025.16;;;10.28;61.73
34506;BME280;20748;42.632;23.198;2024-03-08T12:35:52;92026.41;;;9.94;61.86
34506;BME280;20748;42.632;23.198;2024-03-08T12:38:28;92026.94;;;10.05;62.30
34506;BME280;20748;42.632;23.198;2024-03-08T12:41:04;92019.22;;;10.37;60.41
34506;BME280;20748;42.632;23.198;2024-03-08T12:43:39;92022.09;;;10.49;60.84
34506;BME280;20748;42.632;23.198;2024-03-08T12:46:12;92015.13;;;10.58;57.56
34506;BME280;20748;42.632;23.198;2024-03-08T12:48:46;92016.63;;;10.37;58.34
34506;BME280;20748;42.632;23.198;2024-03-08T12:51:21;92015.53;;;10.38;59.92
34506;BME280;20748;42.632;23.198;2024-03-08T12:53:54;92017.22;;;9.97;59.13
34506;BME280;20748;42.632;23.198;2024-03-08T12:56:29;92005.56;;;9.80;61.35
34506;BME280;20748;42.632;23.198;2024-03-08T12:59:07;92006.66;;;9.51;60.13
34506;BME280;20748;42.632;23.198;2024-03-08T13:01:42;92013.22;;;9.20;62.49
34506;BME280;20748;42.632;23.198;2024-03-08T13:04:16;92014.94;;;8.97;63.06
34506;BME280;20748;42.632;23.198;2024-03-08T13:06:51;92012.97;;;8.89;63.10
34506;BME280;20748;42.632;23.198;2024-03-08T13:09:26;92013.72;;;8.75;64.09
34506;BME280;20748;42.632;23.198;2024-03-08T13:12:00;92016.28;;;8.94;63.27
34506;BME280;20748;42.632;23.198;2024-03-08T13:14:35;92007.06;;;8.69;64.22
34506;BME280;20748;42.632;23.198;2024-03-08T13:17:09;92010.16;;;8.71;64.29
34506;BME280;20748;42.632;23.198;2024-03-08T13:19:44;92025.44;;;8.58;64.87
34506;BME280;20748;42.632;23.198;2024-03-08T13:22:18;92010.31;;;8.61;65.37
34506;BME280;20748;42.632;23.198;2024-03-08T13:24:55;92016.13;;;8.71;66.30
34506;BME280;20748;42.632;23.198;2024-03-08T13:27:28;92007.88;;;8.83;65.35
34506;BME280;20748;42.632;23.198;2024-03-08T13:30:05;92013.59;;;8.99;63.38
34506;BME280;20748;42.632;23.198;2024-03-08T13:32:39;92011.47;;;8.54;64.97
34506;BME280;20748;42.632;23.198;2024-03-08T13:35:15;92006.78;;;8.51;65.86
34506;BME280;20748;42.632;23.198;2024-03-08T13:37:56;92003.00;;;8.63;66.39